createdAt,value
2018-12-18T00:02:28.772Z,1.70
2018-12-18T00:05:32.930Z,1.60
2018-12-18T00:08:31.626Z,1.77
2018-12-18T00:11:29.304Z,1.87
2018-12-18T00:14:27.168Z,1.67
2018-12-18T00:17:25.146Z,1.60
2018-12-18T00:20:24.386Z,1.60
2018-12-18T00:23:22.884Z,1.80
2018-12-18T00:26:20.678Z,1.50
2018-12-18T00:29:19.157Z,1.67
2018-12-18T00:32:17.884Z,1.50
2018-12-18T00:35:15.328Z,2.30
2018-12-18T00:38:12.898Z,2.07
2018-12-18T00:41:09.494Z,2.00
2018-12-18T00:44:08.228Z,2.00
2018-12-18T00:47:05.370Z,1.87
2018-12-18T00:50:02.966Z,1.90
2018-12-18T00:53:02.076Z,1.83
2018-12-18T00:55:59.850Z,2.10
2018-12-18T00:58:58.463Z,2.00
2018-12-18T01:01:57.490Z,2.00
2018-12-18T01:04:56.098Z,2.10
2018-12-18T01:07:55.483Z,1.93
2018-12-18T01:10:52.681Z,1.70
2018-12-18T01:13:49.708Z,1.80
2018-12-18T01:16:47.595Z,2.07
2018-12-18T01:19:45.157Z,2.00
2018-12-18T01:22:42.603Z,2.13
2018-12-18T01:25:40.927Z,2.10
2018-12-18T01:28:39.099Z,1.77
2018-12-18T01:31:37.589Z,2.23
2018-12-18T01:34:34.555Z,2.10
2018-12-18T01:37:32.009Z,2.03
2018-12-18T01:40:30.605Z,2.10
2018-12-18T01:43:28.444Z,2.00
2018-12-18T01:46:26.571Z,2.07
2018-12-18T01:49:24.751Z,2.07
2018-12-18T01:52:23.245Z,2.23
2018-12-18T01:55:21.642Z,2.20
2018-12-18T01:58:20.348Z,2.30
2018-12-18T02:01:23.038Z,2.57
2018-12-18T02:04:21.145Z,2.40
2018-12-18T02:07:19.116Z,2.23
2018-12-18T02:10:17.188Z,2.30
2018-12-18T02:13:14.456Z,2.20
2018-12-18T02:16:12.310Z,2.47
2018-12-18T02:19:09.492Z,2.23
2018-12-18T02:22:08.809Z,2.37
2018-12-18T02:25:07.510Z,2.10
2018-12-18T02:28:06.339Z,2.43
2018-12-18T02:31:05.783Z,2.50
2018-12-18T02:34:02.911Z,2.57
2018-12-18T02:37:01.821Z,2.57
2018-12-18T02:40:00.972Z,2.73
2018-12-18T02:42:59.355Z,2.60
2018-12-18T02:45:57.662Z,2.10
2018-12-18T02:48:56.485Z,2.67
2018-12-18T02:52:03.147Z,2.37
2018-12-18T02:55:00.264Z,2.67
2018-12-18T02:57:59.914Z,2.20
2018-12-18T03:00:58.104Z,2.77
2018-12-18T03:03:56.329Z,2.60
2018-12-18T03:06:54.911Z,2.30
2018-12-18T03:09:53.220Z,2.20
2018-12-18T03:12:50.587Z,2.77
2018-12-18T03:15:49.797Z,2.60
2018-12-18T03:18:48.807Z,2.60
2018-12-18T03:21:45.541Z,2.70
2018-12-18T03:24:43.956Z,2.60
2018-12-18T03:27:42.438Z,2.43
2018-12-18T03:30:40.011Z,2.50
2018-12-18T03:33:38.109Z,2.77
2018-12-18T03:36:35.460Z,2.63
2018-12-18T03:39:33.105Z,2.87
2018-12-18T03:42:32.465Z,2.87
2018-12-18T03:45:30.648Z,2.67
2018-12-18T03:48:29.258Z,2.27
2018-12-18T03:51:27.233Z,2.70
2018-12-18T03:54:24.899Z,2.40
2018-12-18T03:57:22.902Z,2.97
2018-12-18T04:00:22.939Z,2.40
2018-12-18T04:03:20.201Z,2.60
2018-12-18T04:06:18.109Z,2.50
2018-12-18T04:09:14.867Z,2.63
2018-12-18T04:12:17.787Z,2.53
2018-12-18T04:15:16.930Z,2.73
2018-12-18T04:18:15.758Z,3.00
2018-12-18T04:21:12.427Z,2.70
2018-12-18T04:24:09.919Z,2.90
2018-12-18T04:27:09.063Z,2.93
2018-12-18T04:30:05.477Z,2.93
2018-12-18T04:33:02.063Z,2.70
2018-12-18T04:36:01.335Z,2.97
2018-12-18T04:38:58.804Z,3.00
2018-12-18T04:41:56.338Z,2.90
2018-12-18T04:44:53.514Z,3.00
2018-12-18T04:47:51.746Z,2.97
2018-12-18T04:50:49.236Z,2.63
2018-12-18T04:53:47.011Z,2.50
2018-12-18T04:56:45.738Z,3.03
2018-12-18T04:59:45.062Z,3.27
2018-12-18T05:02:43.248Z,2.90
2018-12-18T05:05:40.668Z,3.00
2018-12-18T05:08:39.220Z,3.60
2018-12-18T05:11:36.153Z,2.57
2018-12-18T05:14:34.961Z,2.77
2018-12-18T05:17:33.358Z,2.63
2018-12-18T05:20:31.249Z,3.03
2018-12-18T05:23:29.532Z,2.80
2018-12-18T05:26:26.899Z,2.70
2018-12-18T05:29:25.819Z,3.00
2018-12-18T05:32:23.055Z,3.00
2018-12-18T05:35:21.269Z,3.37
2018-12-18T05:38:20.060Z,2.77
2018-12-18T05:41:18.254Z,3.27
2018-12-18T05:44:16.439Z,2.93
2018-12-18T05:47:14.334Z,3.03
2018-12-18T05:50:11.982Z,3.00
2018-12-18T05:53:10.365Z,3.20
2018-12-18T05:56:09.279Z,3.00
2018-12-18T05:59:07.597Z,3.00
2018-12-18T06:02:05.673Z,3.00
2018-12-18T06:05:03.766Z,2.80
2018-12-18T06:08:02.289Z,2.90
2018-12-18T06:10:59.639Z,3.10
2018-12-18T06:13:58.434Z,2.77
2018-12-18T06:16:56.315Z,3.00
2018-12-18T06:19:53.578Z,2.60
2018-12-18T06:22:52.581Z,2.67
2018-12-18T06:25:51.093Z,2.87
2018-12-18T06:28:49.907Z,2.47
2018-12-18T06:31:48.653Z,2.40
2018-12-18T06:37:48.771Z,2.30
2018-12-18T06:40:45.917Z,2.30
2018-12-18T06:43:44.899Z,2.40
2018-12-18T06:46:42.178Z,2.17
2018-12-18T06:49:40.160Z,1.90
2018-12-18T06:52:38.973Z,2.20
2018-12-18T06:55:38.123Z,2.00
2018-12-18T06:58:37.027Z,2.27
2018-12-18T07:01:35.749Z,2.03
2018-12-18T07:04:34.781Z,1.73
2018-12-18T07:07:32.453Z,2.03
2018-12-18T07:10:30.948Z,1.97
2018-12-18T07:13:27.642Z,2.07
2018-12-18T07:16:24.403Z,1.80
2018-12-18T07:19:21.762Z,1.57
2018-12-18T07:22:19.198Z,1.73
2018-12-18T07:25:18.246Z,1.97
2018-12-18T07:28:16.949Z,1.53
2018-12-18T07:31:14.516Z,1.60
2018-12-18T07:34:15.584Z,1.53
2018-12-18T07:37:12.652Z,1.63
2018-12-18T07:40:10.962Z,1.80
2018-12-18T07:43:08.194Z,1.70
2018-12-18T07:46:06.708Z,1.77
2018-12-18T07:49:05.325Z,1.50
2018-12-18T07:52:03.300Z,1.80
2018-12-18T07:55:01.094Z,1.50
2018-12-18T07:57:59.558Z,1.50
2018-12-18T08:00:57.465Z,1.40
2018-12-18T08:03:56.189Z,1.50
2018-12-18T08:06:55.210Z,1.60
2018-12-18T08:09:52.737Z,1.43
2018-12-18T08:12:51.890Z,1.50
2018-12-18T08:15:50.077Z,1.33
2018-12-18T08:18:47.720Z,1.23
2018-12-18T08:21:44.788Z,1.37
2018-12-18T08:24:44.098Z,1.30
2018-12-18T08:27:42.920Z,1.60
2018-12-18T08:30:40.493Z,1.27
2018-12-18T08:33:38.447Z,1.50
2018-12-18T08:36:37.075Z,1.30
2018-12-18T08:39:34.547Z,1.20
2018-12-18T08:42:32.223Z,1.30
2018-12-18T08:45:30.084Z,1.50
2018-12-18T08:48:28.574Z,1.10
2018-12-18T08:51:26.132Z,1.20
2018-12-18T08:54:24.344Z,1.20
2018-12-18T08:57:22.515Z,1.20
2018-12-18T09:00:21.957Z,1.20
2018-12-18T09:03:20.595Z,1.30
2018-12-18T09:06:18.248Z,1.27
2018-12-18T09:09:19.774Z,1.10
2018-12-18T09:12:19.364Z,1.10
2018-12-18T09:19:08.456Z,1.27
2018-12-18T09:22:06.349Z,1.13
2018-12-18T09:25:03.872Z,0.90
2018-12-18T09:28:01.684Z,1.00
2018-12-18T09:30:59.238Z,0.90
2018-12-18T09:33:58.029Z,1.07
2018-12-18T09:36:56.168Z,1.07
2018-12-18T09:39:54.752Z,0.90
2018-12-18T09:42:58.339Z,1.10
2018-12-18T09:45:57.180Z,1.07
2018-12-18T09:48:55.263Z,0.90
2018-12-18T09:51:52.740Z,1.00
2018-12-18T09:54:50.906Z,0.93
2018-12-18T09:57:54.607Z,1.10
2018-12-18T10:00:52.714Z,1.10
2018-12-18T10:03:51.177Z,0.67
2018-12-18T10:06:49.925Z,0.83
2018-12-18T10:09:47.461Z,0.93
2018-12-18T10:12:51.614Z,1.00
2018-12-18T10:15:48.645Z,0.80
2018-12-18T10:18:46.574Z,1.00
2018-12-18T10:21:44.302Z,0.90
2018-12-18T10:24:42.011Z,0.80
2018-12-18T10:27:40.505Z,0.80
2018-12-18T10:30:39.622Z,0.90
2018-12-18T10:33:41.116Z,0.80
2018-12-18T10:36:38.000Z,0.90
2018-12-18T10:39:36.378Z,0.90
2018-12-18T10:42:34.375Z,0.80
2018-12-18T10:45:33.564Z,0.77
2018-12-18T10:48:30.659Z,0.80
2018-12-18T10:51:29.329Z,1.00
2018-12-18T10:54:28.353Z,0.97
2018-12-18T10:57:27.099Z,0.90
2018-12-18T11:00:27.779Z,0.77
2018-12-18T11:03:25.713Z,0.60
2018-12-18T11:06:22.917Z,0.80
2018-12-18T11:09:21.628Z,0.73
2018-12-18T11:12:20.857Z,0.93
2018-12-18T11:15:18.007Z,0.70
2018-12-18T11:18:15.542Z,0.90
2018-12-18T11:21:14.684Z,1.03
2018-12-18T11:24:12.985Z,0.77
2018-12-18T11:27:10.157Z,0.50
2018-12-18T11:30:07.501Z,0.70
2018-12-18T11:33:04.965Z,0.80
2018-12-18T11:36:02.295Z,0.90
2018-12-18T11:39:01.319Z,0.70
2018-12-18T11:41:58.797Z,0.90
2018-12-18T11:44:57.601Z,1.00
2018-12-18T11:47:55.886Z,1.93
2018-12-18T11:50:54.797Z,1.67
2018-12-18T11:53:53.215Z,1.03
2018-12-18T11:56:51.585Z,1.10
2018-12-18T11:59:49.687Z,0.90
2018-12-18T12:02:46.773Z,0.87
2018-12-18T12:05:45.027Z,1.07
2018-12-18T12:08:42.173Z,0.70
2018-12-18T12:11:41.486Z,0.80
2018-12-18T12:14:39.803Z,0.70
2018-12-18T12:17:38.407Z,0.80
2018-12-18T12:20:35.672Z,0.90
2018-12-18T12:23:33.200Z,0.83
2018-12-18T12:26:46.785Z,0.80
2018-12-18T12:29:44.209Z,0.53
2018-12-18T12:32:43.853Z,1.07
2018-12-18T12:35:42.488Z,0.80
2018-12-18T12:38:40.571Z,0.73
2018-12-18T12:41:39.457Z,0.77
2018-12-18T12:44:36.662Z,0.50
2018-12-18T12:47:35.045Z,0.77
2018-12-18T12:50:33.215Z,1.00
2018-12-18T12:53:30.727Z,0.70
2018-12-18T12:56:28.417Z,0.90
2018-12-18T12:59:26.515Z,0.77
2018-12-18T13:02:24.161Z,0.43
2018-12-18T13:05:22.684Z,0.60
2018-12-18T13:08:21.831Z,0.90
2018-12-18T13:11:20.849Z,0.80
2018-12-18T13:14:18.836Z,0.80
2018-12-18T13:17:16.898Z,0.80
2018-12-18T13:20:15.492Z,0.87
2018-12-18T13:23:14.326Z,0.73
2018-12-18T13:26:12.746Z,0.77
2018-12-18T13:29:11.657Z,0.50
2018-12-18T13:32:08.898Z,0.70
2018-12-18T13:35:08.128Z,0.60
2018-12-18T13:38:06.108Z,1.00
2018-12-18T13:41:03.881Z,0.60
2018-12-18T13:44:01.561Z,0.70
2018-12-18T13:47:00.183Z,0.53
2018-12-18T13:49:58.671Z,0.60
2018-12-18T13:52:57.056Z,0.67
2018-12-18T13:55:55.454Z,0.53
2018-12-18T13:58:52.715Z,0.80
2018-12-18T14:01:51.417Z,0.70
2018-12-18T14:04:49.097Z,0.50
2018-12-18T14:07:47.794Z,0.40
2018-12-18T14:10:46.108Z,0.50
2018-12-18T14:13:44.593Z,0.60
2018-12-18T14:16:42.362Z,0.50
2018-12-18T14:19:41.204Z,0.50
2018-12-18T14:22:39.876Z,0.50
2018-12-18T14:25:38.934Z,0.57
2018-12-18T14:28:36.700Z,0.70
2018-12-18T14:31:35.187Z,0.63
2018-12-18T14:34:34.212Z,0.57
2018-12-18T14:37:32.614Z,0.60
2018-12-18T14:40:30.305Z,0.60
2018-12-18T14:46:31.397Z,0.40
2018-12-18T14:49:30.524Z,0.67
2018-12-18T14:52:29.012Z,0.63
2018-12-18T14:55:25.931Z,0.70
2018-12-18T14:58:23.924Z,0.50
2018-12-18T15:01:21.399Z,0.47
2018-12-18T15:04:18.343Z,0.50
2018-12-18T15:07:16.596Z,0.40
2018-12-18T15:10:14.577Z,0.40
2018-12-18T15:13:12.698Z,0.50
2018-12-18T15:16:11.626Z,0.30
2018-12-18T15:19:09.853Z,0.63
2018-12-18T15:22:07.452Z,0.50
2018-12-18T15:25:05.117Z,0.63
2018-12-18T15:28:04.044Z,0.40
2018-12-18T15:31:01.201Z,0.50
2018-12-18T15:33:59.164Z,0.70
2018-12-18T15:36:57.490Z,0.50
2018-12-18T15:39:56.267Z,0.40
2018-12-18T15:42:54.031Z,0.67
2018-12-18T15:45:52.346Z,0.50
2018-12-18T15:48:50.412Z,0.60
2018-12-18T15:51:47.560Z,0.50
2018-12-18T15:54:45.864Z,0.50
2018-12-18T15:57:43.552Z,0.60
2018-12-18T16:00:41.000Z,0.50
2018-12-18T16:03:38.762Z,0.70
2018-12-18T16:06:36.623Z,0.57
2018-12-18T16:09:34.622Z,0.50
2018-12-18T16:12:33.002Z,0.60
2018-12-18T16:15:32.570Z,0.60
2018-12-18T16:18:31.137Z,0.43
2018-12-18T16:21:28.026Z,0.53
2018-12-18T16:24:26.595Z,0.60
2018-12-18T16:27:24.676Z,0.70
2018-12-18T16:30:22.246Z,0.50
2018-12-18T16:33:20.046Z,0.60
2018-12-18T16:36:20.400Z,0.53
2018-12-18T16:39:18.908Z,0.50
2018-12-18T16:42:18.158Z,0.60
2018-12-18T16:45:16.436Z,0.53
2018-12-18T16:48:14.535Z,0.43
2018-12-18T16:51:11.702Z,0.50
2018-12-18T16:54:10.593Z,0.53
2018-12-18T16:57:13.082Z,0.60
2018-12-18T17:00:05.752Z,0.70
2018-12-18T17:03:04.223Z,0.50
2018-12-18T17:06:03.249Z,0.60
2018-12-18T17:09:01.750Z,0.70
2018-12-18T17:11:59.420Z,0.50
2018-12-18T17:14:57.613Z,0.57
2018-12-18T17:17:56.511Z,0.60
2018-12-18T17:20:54.283Z,0.60
2018-12-18T17:23:53.099Z,0.90
2018-12-18T17:26:51.513Z,0.53
2018-12-18T17:29:50.476Z,0.57
2018-12-18T17:32:49.131Z,0.50
2018-12-18T17:35:48.031Z,0.70
2018-12-18T17:38:45.306Z,0.60
2018-12-18T17:41:43.491Z,0.37
2018-12-18T17:44:41.889Z,0.77
2018-12-18T17:47:39.241Z,0.53
2018-12-18T17:50:38.477Z,0.60
2018-12-18T17:53:35.629Z,0.70
2018-12-18T17:56:33.395Z,0.60
2018-12-18T17:59:30.968Z,0.60
2018-12-18T18:02:28.938Z,0.40
2018-12-18T18:05:27.421Z,0.60
2018-12-18T18:08:26.378Z,0.43
2018-12-18T18:11:24.340Z,0.50
2018-12-18T18:14:22.131Z,0.60
2018-12-18T18:17:21.345Z,0.80
2018-12-18T18:20:19.115Z,0.53
2018-12-18T18:23:17.519Z,0.80
2018-12-18T18:26:16.963Z,0.70
2018-12-18T18:29:14.815Z,0.70
2018-12-18T18:32:12.397Z,0.70
2018-12-18T18:35:09.271Z,0.80
2018-12-18T18:38:08.590Z,0.67
2018-12-18T18:41:07.073Z,0.77
2018-12-18T18:44:04.636Z,0.93
2018-12-18T18:47:03.992Z,0.97
2018-12-18T18:50:01.977Z,0.97
2018-12-18T18:53:01.205Z,1.03
2018-12-18T18:55:58.436Z,1.00
2018-12-18T18:58:57.461Z,0.80
2018-12-18T19:01:54.815Z,0.93
2018-12-18T19:04:53.457Z,1.00
2018-12-18T19:07:56.425Z,0.90
2018-12-18T19:10:51.574Z,1.33
2018-12-18T19:13:49.452Z,1.03
2018-12-18T19:16:47.763Z,1.07
2018-12-18T19:19:45.833Z,0.90
2018-12-18T19:22:45.487Z,1.00
2018-12-18T19:25:43.864Z,1.00
2018-12-18T19:28:41.098Z,1.00
2018-12-18T19:31:39.131Z,0.90
2018-12-18T19:34:36.360Z,1.10
2018-12-18T19:37:33.089Z,0.83
2018-12-18T19:40:31.278Z,1.20
2018-12-18T19:43:28.436Z,1.23
2018-12-18T19:46:26.194Z,0.90
2018-12-18T19:49:24.419Z,1.40
2018-12-18T19:52:21.561Z,1.03
2018-12-18T19:55:20.369Z,1.30
2018-12-18T19:58:18.331Z,1.30
2018-12-18T20:01:15.691Z,1.40
2018-12-18T20:04:13.450Z,1.30
2018-12-18T20:07:11.895Z,1.20
2018-12-18T20:10:10.045Z,1.40
2018-12-18T20:13:09.271Z,1.10
2018-12-18T20:16:07.466Z,1.20
2018-12-18T20:19:06.616Z,1.37
2018-12-18T20:22:10.402Z,1.47
2018-12-18T20:25:07.877Z,1.40
2018-12-18T20:28:06.400Z,1.43
2018-12-18T20:31:03.647Z,1.10
2018-12-18T20:34:02.953Z,1.23
2018-12-18T20:37:00.222Z,1.20
2018-12-18T20:39:57.992Z,1.27
2018-12-18T20:42:55.555Z,1.20
2018-12-18T20:45:54.237Z,1.17
2018-12-18T20:48:51.933Z,1.30
2018-12-18T20:51:50.341Z,1.10
2018-12-18T20:54:47.276Z,1.33
2018-12-18T20:57:45.581Z,1.40
2018-12-18T21:00:43.104Z,1.63
2018-12-18T21:03:41.538Z,1.37
2018-12-18T21:06:39.084Z,1.30
2018-12-18T21:09:37.591Z,1.03
2018-12-18T21:12:35.067Z,1.70
2018-12-18T21:15:33.046Z,1.40
2018-12-18T21:18:30.610Z,1.40
2018-12-18T21:21:29.091Z,1.40
2018-12-18T21:24:27.282Z,1.47
2018-12-18T21:30:18.651Z,1.50
2018-12-18T21:33:16.124Z,1.70
2018-12-18T21:36:13.738Z,1.10
2018-12-18T21:39:11.771Z,1.20
2018-12-18T21:42:09.338Z,1.47
2018-12-18T21:45:06.791Z,1.30
2018-12-18T21:48:04.412Z,1.70
2018-12-18T21:51:01.291Z,1.40
2018-12-18T21:53:59.687Z,1.40
2018-12-18T21:56:58.294Z,1.40
2018-12-18T21:59:55.528Z,1.57
2018-12-18T22:02:54.556Z,1.73
2018-12-18T22:05:53.673Z,1.67
2018-12-18T22:08:51.646Z,1.70
2018-12-18T22:11:48.913Z,0.97
2018-12-18T22:14:46.476Z,1.47
2018-12-18T22:17:44.681Z,1.37
2018-12-18T22:20:42.348Z,1.50
2018-12-18T22:23:41.132Z,1.50
2018-12-18T22:26:38.400Z,1.40
2018-12-18T22:29:36.189Z,1.53
2018-12-18T22:32:33.110Z,1.50
2018-12-18T22:35:30.998Z,1.40
2018-12-18T22:38:29.276Z,1.40
2018-12-18T22:41:26.646Z,1.40
2018-12-18T22:44:25.588Z,1.37
2018-12-18T22:47:23.868Z,1.40
2018-12-18T22:50:21.902Z,1.23
2018-12-18T22:53:21.906Z,1.60
2018-12-18T22:56:21.252Z,1.70
2018-12-18T22:59:19.353Z,1.30
2018-12-18T23:02:22.729Z,1.60
2018-12-18T23:05:21.259Z,1.40
2018-12-18T23:08:20.689Z,1.67
2018-12-18T23:11:18.137Z,1.20
2018-12-18T23:14:16.410Z,1.60
2018-12-18T23:17:13.168Z,1.60
2018-12-18T23:20:10.737Z,1.20
2018-12-18T23:23:08.387Z,1.63
2018-12-18T23:26:06.861Z,1.70
2018-12-18T23:29:04.765Z,1.50
2018-12-18T23:32:03.398Z,1.23
2018-12-18T23:35:00.519Z,1.30
2018-12-18T23:37:57.761Z,1.27
2018-12-18T23:40:54.459Z,1.80
2018-12-18T23:43:51.869Z,1.50
2018-12-18T23:46:49.847Z,1.80
2018-12-18T23:49:47.077Z,1.70
2018-12-18T23:52:44.758Z,1.70
2018-12-18T23:55:43.330Z,1.50
2018-12-18T23:58:42.065Z,1.40
